sensor_id;sensor_type;location;lat;lon;timestamp;P1;durP1;ratioP1;P2;durP2;ratioP2
47599;SDS011;33323;52.124;6.018;2023-06-26T00:00:13;6.93;;;5.47;;
47599;SDS011;33323;52.124;6.018;2023-06-26T00:02:41;8.35;;;5.75;;
47599;SDS011;33323;52.124;6.018;2023-06-26T00:05:09;6.22;;;5.60;;
47599;SDS011;33323;52.124;6.018;2023-06-26T00:07:36;6.95;;;5.43;;
47599;SDS011;33323;52.124;6.018;2023-06-26T00:10:04;10.15;;;7.15;;
47599;SDS011;33323;52.124;6.018;2023-06-26T00:12:32;16.48;;;7.15;;
47599;SDS011;33323;52.124;6.018;2023-06-26T00:15:00;7.47;;;6.78;;
47599;SDS011;33323;52.124;6.018;2023-06-26T00:17:27;8.77;;;7.88;;
47599;SDS011;33323;52.124;6.018;2023-06-26T00:19:55;8.02;;;6.20;;
47599;SDS011;33323;52.124;6.018;2023-06-26T00:22:22;7.65;;;6.53;;
47599;SDS011;33323;52.124;6.018;2023-06-26T00:24:50;7.55;;;6.70;;
47599;SDS011;33323;52.124;6.018;2023-06-26T00:27:17;7.55;;;5.70;;
47599;SDS011;33323;52.124;6.018;2023-06-26T00:29:44;6.70;;;5.90;;
47599;SDS011;33323;52.124;6.018;2023-06-26T00:32:11;8.15;;;7.32;;
47599;SDS011;33323;52.124;6.018;2023-06-26T00:34:38;7.47;;;6.78;;
47599;SDS011;33323;52.124;6.018;2023-06-26T00:37:07;9.75;;;6.95;;
47599;SDS011;33323;52.124;6.018;2023-06-26T00:39:34;9.75;;;7.07;;
47599;SDS011;33323;52.124;6.018;2023-06-26T00:42:01;9.80;;;6.55;;
47599;SDS011;33323;52.124;6.018;2023-06-26T00:44:28;7.28;;;6.28;;
47599;SDS011;33323;52.124;6.018;2023-06-26T00:46:55;7.55;;;6.43;;
47599;SDS011;33323;52.124;6.018;2023-06-26T00:49:23;9.18;;;6.70;;
47599;SDS011;33323;52.124;6.018;2023-06-26T00:51:51;8.80;;;6.35;;
47599;SDS011;33323;52.124;6.018;2023-06-26T00:54:18;7.18;;;6.47;;
47599;SDS011;33323;52.124;6.018;2023-06-26T00:56:48;7.97;;;6.22;;
47599;SDS011;33323;52.124;6.018;2023-06-26T00:59:15;9.18;;;6.35;;
47599;SDS011;33323;52.124;6.018;2023-06-26T01:01:42;8.88;;;7.03;;
47599;SDS011;33323;52.124;6.018;2023-06-26T01:04:09;8.85;;;5.93;;
47599;SDS011;33323;52.124;6.018;2023-06-26T01:06:47;7.65;;;6.53;;
47599;SDS011;33323;52.124;6.018;2023-06-26T01:09:17;8.25;;;5.90;;
47599;SDS011;33323;52.124;6.018;2023-06-26T01:11:45;7.30;;;6.15;;
47599;SDS011;33323;52.124;6.018;2023-06-26T01:14:13;6.15;;;5.10;;
47599;SDS011;33323;52.124;6.018;2023-06-26T01:16:41;8.60;;;6.47;;
47599;SDS011;33323;52.124;6.018;2023-06-26T01:19:18;9.80;;;5.35;;
47599;SDS011;33323;52.124;6.018;2023-06-26T01:24:42;6.63;;;5.40;;
47599;SDS011;33323;52.124;6.018;2023-06-26T01:27:37;10.90;;;5.90;;
47599;SDS011;33323;52.124;6.018;2023-06-26T01:30:05;7.18;;;5.13;;
47599;SDS011;33323;52.124;6.018;2023-06-26T01:32:34;7.40;;;6.25;;
47599;SDS011;33323;52.124;6.018;2023-06-26T01:35:02;8.60;;;6.97;;
47599;SDS011;33323;52.124;6.018;2023-06-26T01:37:30;10.52;;;6.72;;
47599;SDS011;33323;52.124;6.018;2023-06-26T01:39:57;7.55;;;6.32;;
47599;SDS011;33323;52.124;6.018;2023-06-26T01:42:24;9.63;;;5.80;;
47599;SDS011;33323;52.124;6.018;2023-06-26T01:44:51;7.45;;;5.82;;
47599;SDS011;33323;52.124;6.018;2023-06-26T01:47:22;7.88;;;5.72;;
47599;SDS011;33323;52.124;6.018;2023-06-26T01:50:01;9.50;;;6.40;;
47599;SDS011;33323;52.124;6.018;2023-06-26T01:53:08;7.80;;;6.50;;
47599;SDS011;33323;52.124;6.018;2023-06-26T01:55:51;6.15;;;5.55;;
47599;SDS011;33323;52.124;6.018;2023-06-26T01:58:23;6.75;;;5.85;;
47599;SDS011;33323;52.124;6.018;2023-06-26T02:00:51;9.52;;;6.47;;
47599;SDS011;33323;52.124;6.018;2023-06-26T02:03:19;9.10;;;6.10;;
47599;SDS011;33323;52.124;6.018;2023-06-26T02:05:47;8.05;;;5.65;;
47599;SDS011;33323;52.124;6.018;2023-06-26T02:08:14;7.55;;;6.15;;
47599;SDS011;33323;52.124;6.018;2023-06-26T02:10:47;7.25;;;6.15;;
47599;SDS011;33323;52.124;6.018;2023-06-26T02:13:15;7.30;;;6.13;;
47599;SDS011;33323;52.124;6.018;2023-06-26T02:15:42;7.28;;;5.82;;
47599;SDS011;33323;52.124;6.018;2023-06-26T02:18:09;9.00;;;6.53;;
47599;SDS011;33323;52.124;6.018;2023-06-26T02:20:36;8.88;;;6.28;;
47599;SDS011;33323;52.124;6.018;2023-06-26T02:23:04;8.25;;;6.10;;
47599;SDS011;33323;52.124;6.018;2023-06-26T02:25:31;10.05;;;6.55;;
47599;SDS011;33323;52.124;6.018;2023-06-26T02:27:58;9.52;;;6.70;;
47599;SDS011;33323;52.124;6.018;2023-06-26T02:30:25;7.90;;;5.90;;
47599;SDS011;33323;52.124;6.018;2023-06-26T02:32:52;8.32;;;6.10;;
47599;SDS011;33323;52.124;6.018;2023-06-26T02:35:19;8.05;;;6.43;;
47599;SDS011;33323;52.124;6.018;2023-06-26T02:37:46;8.90;;;6.18;;
47599;SDS011;33323;52.124;6.018;2023-06-26T02:40:13;8.15;;;5.70;;
47599;SDS011;33323;52.124;6.018;2023-06-26T02:42:41;8.07;;;5.38;;
47599;SDS011;33323;52.124;6.018;2023-06-26T02:45:08;7.35;;;6.00;;
47599;SDS011;33323;52.124;6.018;2023-06-26T02:47:36;10.05;;;6.05;;
47599;SDS011;33323;52.124;6.018;2023-06-26T02:50:07;7.55;;;5.82;;
47599;SDS011;33323;52.124;6.018;2023-06-26T02:52:55;7.80;;;5.55;;
47599;SDS011;33323;52.124;6.018;2023-06-26T02:55:22;7.30;;;5.90;;
47599;SDS011;33323;52.124;6.018;2023-06-26T02:57:51;8.02;;;6.25;;
47599;SDS011;33323;52.124;6.018;2023-06-26T03:00:18;7.75;;;5.43;;
47599;SDS011;33323;52.124;6.018;2023-06-26T03:02:48;6.55;;;5.80;;
47599;SDS011;33323;52.124;6.018;2023-06-26T03:05:18;7.03;;;5.22;;
47599;SDS011;33323;52.124;6.018;2023-06-26T03:07:46;7.38;;;4.97;;
47599;SDS011;33323;52.124;6.018;2023-06-26T03:10:14;6.15;;;4.63;;
47599;SDS011;33323;52.124;6.018;2023-06-26T03:12:42;9.32;;;5.45;;
47599;SDS011;33323;52.124;6.018;2023-06-26T03:15:10;7.32;;;4.82;;
47599;SDS011;33323;52.124;6.018;2023-06-26T03:17:38;6.68;;;4.70;;
47599;SDS011;33323;52.124;6.018;2023-06-26T03:20:09;6.93;;;4.47;;
47599;SDS011;33323;52.124;6.018;2023-06-26T03:22:50;7.75;;;4.95;;
47599;SDS011;33323;52.124;6.018;2023-06-26T03:25:18;13.00;;;4.60;;
47599;SDS011;33323;52.124;6.018;2023-06-26T03:27:46;7.82;;;4.45;;
47599;SDS011;33323;52.124;6.018;2023-06-26T03:30:15;6.68;;;4.25;;
47599;SDS011;33323;52.124;6.018;2023-06-26T03:32:46;9.27;;;4.10;;
47599;SDS011;33323;52.124;6.018;2023-06-26T03:35:13;12.10;;;4.35;;
47599;SDS011;33323;52.124;6.018;2023-06-26T03:37:41;8.75;;;4.47;;
47599;SDS011;33323;52.124;6.018;2023-06-26T03:40:09;6.43;;;3.60;;
47599;SDS011;33323;52.124;6.018;2023-06-26T03:42:37;13.82;;;5.00;;
47599;SDS011;33323;52.124;6.018;2023-06-26T03:45:04;7.82;;;3.80;;
47599;SDS011;33323;52.124;6.018;2023-06-26T03:47:33;8.43;;;3.95;;
47599;SDS011;33323;52.124;6.018;2023-06-26T03:50:01;6.50;;;3.40;;
47599;SDS011;33323;52.124;6.018;2023-06-26T03:52:29;7.70;;;4.00;;
47599;SDS011;33323;52.124;6.018;2023-06-26T03:54:57;7.22;;;4.43;;
47599;SDS011;33323;52.124;6.018;2023-06-26T03:57:24;6.60;;;3.75;;
47599;SDS011;33323;52.124;6.018;2023-06-26T03:59:52;8.80;;;4.13;;
47599;SDS011;33323;52.124;6.018;2023-06-26T04:02:21;9.85;;;4.00;;
47599;SDS011;33323;52.124;6.018;2023-06-26T04:04:49;7.10;;;3.80;;
47599;SDS011;33323;52.124;6.018;2023-06-26T04:07:16;6.60;;;3.45;;
47599;SDS011;33323;52.124;6.018;2023-06-26T04:09:44;8.88;;;4.53;;
47599;SDS011;33323;52.124;6.018;2023-06-26T04:12:11;8.30;;;4.03;;
47599;SDS011;33323;52.124;6.018;2023-06-26T04:14:38;6.75;;;3.60;;
47599;SDS011;33323;52.124;6.018;2023-06-26T04:17:05;11.02;;;3.65;;
47599;SDS011;33323;52.124;6.018;2023-06-26T04:19:32;10.40;;;3.38;;
47599;SDS011;33323;52.124;6.018;2023-06-26T04:22:02;10.05;;;4.05;;
47599;SDS011;33323;52.124;6.018;2023-06-26T04:24:30;6.63;;;3.20;;
47599;SDS011;33323;52.124;6.018;2023-06-26T04:26:57;13.25;;;5.22;;
47599;SDS011;33323;52.124;6.018;2023-06-26T04:29:27;9.27;;;3.53;;
47599;SDS011;33323;52.124;6.018;2023-06-26T04:31:54;10.77;;;3.60;;
47599;SDS011;33323;52.124;6.018;2023-06-26T04:34:25;10.27;;;3.95;;
47599;SDS011;33323;52.124;6.018;2023-06-26T04:36:53;7.18;;;3.78;;
47599;SDS011;33323;52.124;6.018;2023-06-26T04:39:21;9.90;;;3.83;;
47599;SDS011;33323;52.124;6.018;2023-06-26T04:41:48;7.65;;;3.17;;
47599;SDS011;33323;52.124;6.018;2023-06-26T04:44:15;11.55;;;4.30;;
47599;SDS011;33323;52.124;6.018;2023-06-26T04:46:42;12.85;;;4.70;;
47599;SDS011;33323;52.124;6.018;2023-06-26T04:49:10;8.48;;;3.08;;
47599;SDS011;33323;52.124;6.018;2023-06-26T04:51:37;13.07;;;4.13;;
47599;SDS011;33323;52.124;6.018;2023-06-26T04:54:07;10.80;;;4.63;;
47599;SDS011;33323;52.124;6.018;2023-06-26T04:56:34;9.65;;;3.65;;
47599;SDS011;33323;52.124;6.018;2023-06-26T04:59:02;17.10;;;4.10;;
47599;SDS011;33323;52.124;6.018;2023-06-26T05:01:29;13.45;;;4.97;;
47599;SDS011;33323;52.124;6.018;2023-06-26T05:03:58;9.23;;;3.55;;
47599;SDS011;33323;52.124;6.018;2023-06-26T05:06:25;13.52;;;4.38;;
47599;SDS011;33323;52.124;6.018;2023-06-26T05:08:52;10.05;;;4.03;;
47599;SDS011;33323;52.124;6.018;2023-06-26T05:11:19;9.40;;;3.97;;
47599;SDS011;33323;52.124;6.018;2023-06-26T05:13:47;9.70;;;4.03;;
47599;SDS011;33323;52.124;6.018;2023-06-26T05:16:14;10.07;;;5.28;;
47599;SDS011;33323;52.124;6.018;2023-06-26T05:18:41;8.02;;;4.15;;
47599;SDS011;33323;52.124;6.018;2023-06-26T05:21:08;13.82;;;3.85;;
47599;SDS011;33323;52.124;6.018;2023-06-26T05:23:35;8.65;;;2.85;;
47599;SDS011;33323;52.124;6.018;2023-06-26T05:26:03;7.18;;;3.85;;
47599;SDS011;33323;52.124;6.018;2023-06-26T05:28:30;10.88;;;3.97;;
47599;SDS011;33323;52.124;6.018;2023-06-26T05:30:58;12.40;;;4.25;;
47599;SDS011;33323;52.124;6.018;2023-06-26T05:33:26;7.25;;;3.33;;
47599;SDS011;33323;52.124;6.018;2023-06-26T05:35:53;11.23;;;4.07;;
47599;SDS011;33323;52.124;6.018;2023-06-26T05:38:21;9.27;;;3.63;;
47599;SDS011;33323;52.124;6.018;2023-06-26T05:40:49;10.82;;;3.60;;
47599;SDS011;33323;52.124;6.018;2023-06-26T05:43:16;10.82;;;4.20;;
47599;SDS011;33323;52.124;6.018;2023-06-26T05:45:53;6.68;;;3.00;;
47599;SDS011;33323;52.124;6.018;2023-06-26T05:48:20;10.88;;;4.07;;
47599;SDS011;33323;52.124;6.018;2023-06-26T05:50:47;10.02;;;3.78;;
47599;SDS011;33323;52.124;6.018;2023-06-26T05:53:14;9.57;;;3.63;;
47599;SDS011;33323;52.124;6.018;2023-06-26T05:55:42;7.15;;;3.35;;
47599;SDS011;33323;52.124;6.018;2023-06-26T05:58:10;10.65;;;3.42;;
47599;SDS011;33323;52.124;6.018;2023-06-26T06:00:41;5.47;;;2.70;;
47599;SDS011;33323;52.124;6.018;2023-06-26T06:03:09;12.43;;;3.45;;
47599;SDS011;33323;52.124;6.018;2023-06-26T06:05:37;7.88;;;3.10;;
47599;SDS011;33323;52.124;6.018;2023-06-26T06:08:04;8.68;;;3.25;;
47599;SDS011;33323;52.124;6.018;2023-06-26T06:10:32;9.70;;;2.83;;
47599;SDS011;33323;52.124;6.018;2023-06-26T06:13:00;7.72;;;2.50;;
47599;SDS011;33323;52.124;6.018;2023-06-26T06:15:27;6.32;;;2.25;;
47599;SDS011;33323;52.124;6.018;2023-06-26T06:17:57;6.70;;;2.80;;
47599;SDS011;33323;52.124;6.018;2023-06-26T06:20:25;8.48;;;2.85;;
47599;SDS011;33323;52.124;6.018;2023-06-26T06:22:52;5.43;;;2.30;;
47599;SDS011;33323;52.124;6.018;2023-06-26T06:25:19;4.88;;;1.83;;
47599;SDS011;33323;52.124;6.018;2023-06-26T06:27:47;4.35;;;2.20;;
47599;SDS011;33323;52.124;6.018;2023-06-26T06:30:14;3.67;;;2.20;;
47599;SDS011;33323;52.124;6.018;2023-06-26T06:32:41;3.92;;;1.70;;
47599;SDS011;33323;52.124;6.018;2023-06-26T06:35:09;7.45;;;2.45;;
47599;SDS011;33323;52.124;6.018;2023-06-26T06:37:37;7.00;;;2.50;;
47599;SDS011;33323;52.124;6.018;2023-06-26T06:40:05;5.35;;;2.00;;
47599;SDS011;33323;52.124;6.018;2023-06-26T06:42:33;4.00;;;1.63;;
47599;SDS011;33323;52.124;6.018;2023-06-26T06:45:02;4.15;;;1.70;;
47599;SDS011;33323;52.124;6.018;2023-06-26T06:47:31;4.43;;;1.38;;
47599;SDS011;33323;52.124;6.018;2023-06-26T06:50:00;3.60;;;1.40;;
47599;SDS011;33323;52.124;6.018;2023-06-26T06:52:38;7.60;;;1.58;;
47599;SDS011;33323;52.124;6.018;2023-06-26T06:55:07;3.95;;;1.65;;
47599;SDS011;33323;52.124;6.018;2023-06-26T06:57:35;2.63;;;1.13;;
47599;SDS011;33323;52.124;6.018;2023-06-26T07:00:05;1.90;;;0.90;;
47599;SDS011;33323;52.124;6.018;2023-06-26T07:02:37;2.38;;;1.10;;
47599;SDS011;33323;52.124;6.018;2023-06-26T07:05:06;4.18;;;0.95;;
47599;SDS011;33323;52.124;6.018;2023-06-26T07:07:34;1.90;;;1.00;;
47599;SDS011;33323;52.124;6.018;2023-06-26T07:10:04;2.92;;;1.60;;
47599;SDS011;33323;52.124;6.018;2023-06-26T07:12:35;4.15;;;1.20;;
47599;SDS011;33323;52.124;6.018;2023-06-26T07:15:03;3.50;;;1.20;;
47599;SDS011;33323;52.124;6.018;2023-06-26T07:17:33;5.07;;;1.30;;
47599;SDS011;33323;52.124;6.018;2023-06-26T07:20:01;3.47;;;1.50;;
47599;SDS011;33323;52.124;6.018;2023-06-26T07:22:33;4.22;;;1.20;;
47599;SDS011;33323;52.124;6.018;2023-06-26T07:25:01;3.13;;;1.02;;
47599;SDS011;33323;52.124;6.018;2023-06-26T07:27:30;6.68;;;1.67;;
47599;SDS011;33323;52.124;6.018;2023-06-26T07:29:59;2.95;;;1.65;;
47599;SDS011;33323;52.124;6.018;2023-06-26T07:32:28;3.97;;;1.77;;
47599;SDS011;33323;52.124;6.018;2023-06-26T07:34:55;2.25;;;1.02;;
47599;SDS011;33323;52.124;6.018;2023-06-26T07:37:23;2.45;;;1.60;;
47599;SDS011;33323;52.124;6.018;2023-06-26T07:39:50;4.53;;;1.60;;
47599;SDS011;33323;52.124;6.018;2023-06-26T07:42:18;4.53;;;1.95;;
47599;SDS011;33323;52.124;6.018;2023-06-26T07:44:45;4.30;;;1.80;;
47599;SDS011;33323;52.124;6.018;2023-06-26T07:47:13;5.00;;;1.42;;
47599;SDS011;33323;52.124;6.018;2023-06-26T07:49:41;2.63;;;1.33;;
47599;SDS011;33323;52.124;6.018;2023-06-26T07:52:09;2.83;;;1.88;;
47599;SDS011;33323;52.124;6.018;2023-06-26T07:54:39;4.28;;;1.70;;
47599;SDS011;33323;52.124;6.018;2023-06-26T07:57:07;5.63;;;2.15;;
47599;SDS011;33323;52.124;6.018;2023-06-26T07:59:38;4.05;;;2.38;;
47599;SDS011;33323;52.124;6.018;2023-06-26T08:02:05;2.97;;;1.35;;
47599;SDS011;33323;52.124;6.018;2023-06-26T08:04:33;4.32;;;1.85;;
47599;SDS011;33323;52.124;6.018;2023-06-26T08:07:01;6.85;;;1.52;;
47599;SDS011;33323;52.124;6.018;2023-06-26T08:09:30;4.32;;;1.80;;
47599;SDS011;33323;52.124;6.018;2023-06-26T08:11:59;5.22;;;1.50;;
47599;SDS011;33323;52.124;6.018;2023-06-26T08:14:26;4.20;;;1.88;;
47599;SDS011;33323;52.124;6.018;2023-06-26T08:16:54;5.07;;;1.65;;
47599;SDS011;33323;52.124;6.018;2023-06-26T08:19:22;3.53;;;1.73;;
47599;SDS011;33323;52.124;6.018;2023-06-26T08:21:49;5.80;;;2.25;;
47599;SDS011;33323;52.124;6.018;2023-06-26T08:24:17;5.78;;;1.63;;
47599;SDS011;33323;52.124;6.018;2023-06-26T08:26:46;2.17;;;1.33;;
47599;SDS011;33323;52.124;6.018;2023-06-26T08:29:14;4.70;;;1.70;;
47599;SDS011;33323;52.124;6.018;2023-06-26T08:31:42;7.35;;;1.73;;
47599;SDS011;33323;52.124;6.018;2023-06-26T08:34:10;3.33;;;1.92;;
47599;SDS011;33323;52.124;6.018;2023-06-26T08:36:37;6.40;;;2.10;;
47599;SDS011;33323;52.124;6.018;2023-06-26T08:39:05;4.00;;;1.58;;
47599;SDS011;33323;52.124;6.018;2023-06-26T08:41:32;3.75;;;2.08;;
47599;SDS011;33323;52.124;6.018;2023-06-26T08:43:59;3.67;;;1.50;;
47599;SDS011;33323;52.124;6.018;2023-06-26T08:46:27;6.20;;;2.05;;
47599;SDS011;33323;52.124;6.018;2023-06-26T08:48:55;4.18;;;2.13;;
47599;SDS011;33323;52.124;6.018;2023-06-26T08:51:38;4.97;;;1.38;;
47599;SDS011;33323;52.124;6.018;2023-06-26T08:54:08;4.93;;;2.13;;
47599;SDS011;33323;52.124;6.018;2023-06-26T08:56:42;2.50;;;1.23;;
47599;SDS011;33323;52.124;6.018;2023-06-26T08:59:13;4.20;;;1.80;;
47599;SDS011;33323;52.124;6.018;2023-06-26T09:01:41;2.28;;;1.42;;
47599;SDS011;33323;52.124;6.018;2023-06-26T09:04:08;4.90;;;1.63;;
47599;SDS011;33323;52.124;6.018;2023-06-26T09:06:35;2.92;;;1.60;;
47599;SDS011;33323;52.124;6.018;2023-06-26T09:09:03;3.58;;;1.60;;
47599;SDS011;33323;52.124;6.018;2023-06-26T09:11:30;5.43;;;1.73;;
47599;SDS011;33323;52.124;6.018;2023-06-26T09:13:57;2.13;;;1.10;;
47599;SDS011;33323;52.124;6.018;2023-06-26T09:16:25;2.45;;;0.98;;
47599;SDS011;33323;52.124;6.018;2023-06-26T09:18:53;4.03;;;1.50;;
47599;SDS011;33323;52.124;6.018;2023-06-26T09:21:22;3.53;;;1.10;;
47599;SDS011;33323;52.124;6.018;2023-06-26T09:23:50;2.42;;;1.20;;
47599;SDS011;33323;52.124;6.018;2023-06-26T09:26:21;3.20;;;1.38;;
47599;SDS011;33323;52.124;6.018;2023-06-26T09:28:49;3.92;;;0.88;;
47599;SDS011;33323;52.124;6.018;2023-06-26T09:31:16;3.83;;;1.20;;
47599;SDS011;33323;52.124;6.018;2023-06-26T09:34:03;3.85;;;1.77;;
47599;SDS011;33323;52.124;6.018;2023-06-26T09:36:32;2.95;;;1.35;;
47599;SDS011;33323;52.124;6.018;2023-06-26T09:39:05;4.50;;;1.20;;
47599;SDS011;33323;52.124;6.018;2023-06-26T09:41:40;6.97;;;1.60;;
47599;SDS011;33323;52.124;6.018;2023-06-26T09:44:12;3.80;;;1.25;;
47599;SDS011;33323;52.124;6.018;2023-06-26T09:46:40;3.92;;;1.13;;
47599;SDS011;33323;52.124;6.018;2023-06-26T09:49:08;5.57;;;1.42;;
47599;SDS011;33323;52.124;6.018;2023-06-26T09:51:38;3.42;;;0.70;;
47599;SDS011;33323;52.124;6.018;2023-06-26T09:54:07;4.65;;;1.10;;
47599;SDS011;33323;52.124;6.018;2023-06-26T09:56:36;2.58;;;1.13;;
47599;SDS011;33323;52.124;6.018;2023-06-26T09:59:05;5.70;;;1.00;;
47599;SDS011;33323;52.124;6.018;2023-06-26T10:01:32;3.20;;;0.95;;
47599;SDS011;33323;52.124;6.018;2023-06-26T10:04:00;4.57;;;0.77;;
47599;SDS011;33323;52.124;6.018;2023-06-26T10:06:33;9.63;;;0.98;;
47599;SDS011;33323;52.124;6.018;2023-06-26T10:09:05;4.22;;;0.70;;
47599;SDS011;33323;52.124;6.018;2023-06-26T10:11:37;4.90;;;1.40;;
47599;SDS011;33323;52.124;6.018;2023-06-26T10:14:23;1.73;;;0.50;;
47599;SDS011;33323;52.124;6.018;2023-06-26T10:16:56;4.53;;;0.60;;
47599;SDS011;33323;52.124;6.018;2023-06-26T10:19:26;1.98;;;0.60;;
47599;SDS011;33323;52.124;6.018;2023-06-26T10:21:55;3.75;;;0.60;;
47599;SDS011;33323;52.124;6.018;2023-06-26T10:24:23;3.78;;;0.60;;
47599;SDS011;33323;52.124;6.018;2023-06-26T10:26:55;1.63;;;0.65;;
47599;SDS011;33323;52.124;6.018;2023-06-26T10:29:53;3.08;;;1.35;;
47599;SDS011;33323;52.124;6.018;2023-06-26T10:32:24;7.75;;;0.80;;
47599;SDS011;33323;52.124;6.018;2023-06-26T10:34:53;1.67;;;0.70;;
47599;SDS011;33323;52.124;6.018;2023-06-26T10:37:39;2.03;;;0.50;;
47599;SDS011;33323;52.124;6.018;2023-06-26T10:40:12;6.25;;;0.65;;
47599;SDS011;33323;52.124;6.018;2023-06-26T10:42:42;2.40;;;0.70;;
47599;SDS011;33323;52.124;6.018;2023-06-26T10:45:16;2.30;;;0.60;;
47599;SDS011;33323;52.124;6.018;2023-06-26T10:50:16;3.78;;;0.57;;
47599;SDS011;33323;52.124;6.018;2023-06-26T10:55:48;2.97;;;0.50;;
47599;SDS011;33323;52.124;6.018;2023-06-26T11:01:20;3.20;;;0.57;;
47599;SDS011;33323;52.124;6.018;2023-06-26T11:06:31;2.53;;;0.40;;
47599;SDS011;33323;52.124;6.018;2023-06-26T11:09:06;3.80;;;0.60;;
47599;SDS011;33323;52.124;6.018;2023-06-26T11:14:19;2.45;;;0.50;;
47599;SDS011;33323;52.124;6.018;2023-06-26T11:16:48;2.17;;;0.75;;
47599;SDS011;33323;52.124;6.018;2023-06-26T11:19:17;2.55;;;0.55;;
47599;SDS011;33323;52.124;6.018;2023-06-26T11:21:46;3.90;;;1.08;;
47599;SDS011;33323;52.124;6.018;2023-06-26T11:24:14;2.85;;;0.65;;
47599;SDS011;33323;52.124;6.018;2023-06-26T11:26:43;1.30;;;0.32;;
47599;SDS011;33323;52.124;6.018;2023-06-26T11:29:12;2.50;;;0.90;;
47599;SDS011;33323;52.124;6.018;2023-06-26T11:31:40;0.97;;;0.60;;
47599;SDS011;33323;52.124;6.018;2023-06-26T11:34:12;2.72;;;0.50;;
47599;SDS011;33323;52.124;6.018;2023-06-26T11:36:43;1.58;;;0.70;;
47599;SDS011;33323;52.124;6.018;2023-06-26T11:39:13;2.03;;;0.95;;
47599;SDS011;33323;52.124;6.018;2023-06-26T11:41:40;2.55;;;0.52;;
47599;SDS011;33323;52.124;6.018;2023-06-26T11:44:10;3.55;;;0.47;;
47599;SDS011;33323;52.124;6.018;2023-06-26T11:46:38;4.65;;;1.33;;
47599;SDS011;33323;52.124;6.018;2023-06-26T11:49:05;1.90;;;0.60;;
47599;SDS011;33323;52.124;6.018;2023-06-26T11:51:34;4.75;;;0.60;;
47599;SDS011;33323;52.124;6.018;2023-06-26T11:54:03;2.95;;;1.30;;
47599;SDS011;33323;52.124;6.018;2023-06-26T11:56:31;1.35;;;0.50;;
47599;SDS011;33323;52.124;6.018;2023-06-26T11:59:06;2.22;;;1.08;;
47599;SDS011;33323;52.124;6.018;2023-06-26T12:01:38;1.65;;;0.50;;
47599;SDS011;33323;52.124;6.018;2023-06-26T12:04:10;1.85;;;0.40;;
47599;SDS011;33323;52.124;6.018;2023-06-26T12:06:40;2.35;;;0.50;;
47599;SDS011;33323;52.124;6.018;2023-06-26T12:09:12;3.35;;;0.57;;
47599;SDS011;33323;52.124;6.018;2023-06-26T12:11:41;3.85;;;0.40;;
47599;SDS011;33323;52.124;6.018;2023-06-26T12:14:11;2.22;;;0.63;;
47599;SDS011;33323;52.124;6.018;2023-06-26T12:16:41;2.47;;;0.50;;
47599;SDS011;33323;52.124;6.018;2023-06-26T12:19:09;1.20;;;0.80;;
47599;SDS011;33323;52.124;6.018;2023-06-26T12:24:05;4.10;;;1.48;;
47599;SDS011;33323;52.124;6.018;2023-06-26T12:26:35;2.42;;;0.65;;
47599;SDS011;33323;52.124;6.018;2023-06-26T12:29:04;2.10;;;0.60;;
47599;SDS011;33323;52.124;6.018;2023-06-26T12:31:34;2.00;;;0.52;;
47599;SDS011;33323;52.124;6.018;2023-06-26T12:34:08;3.13;;;0.65;;
47599;SDS011;33323;52.124;6.018;2023-06-26T12:36:45;4.85;;;1.75;;
47599;SDS011;33323;52.124;6.018;2023-06-26T12:39:17;1.65;;;0.50;;
47599;SDS011;33323;52.124;6.018;2023-06-26T12:41:51;2.15;;;0.80;;
47599;SDS011;33323;52.124;6.018;2023-06-26T12:44:28;1.90;;;0.85;;
47599;SDS011;33323;52.124;6.018;2023-06-26T12:46:57;3.38;;;1.15;;
47599;SDS011;33323;52.124;6.018;2023-06-26T12:49:35;2.30;;;0.80;;
47599;SDS011;33323;52.124;6.018;2023-06-26T12:52:04;3.03;;;0.55;;
47599;SDS011;33323;52.124;6.018;2023-06-26T12:54:35;2.88;;;0.38;;
47599;SDS011;33323;52.124;6.018;2023-06-26T12:57:05;2.63;;;0.50;;
47599;SDS011;33323;52.124;6.018;2023-06-26T12:59:35;3.67;;;0.65;;
47599;SDS011;33323;52.124;6.018;2023-06-26T13:02:04;2.50;;;0.40;;
47599;SDS011;33323;52.124;6.018;2023-06-26T13:04:33;2.95;;;0.55;;
47599;SDS011;33323;52.124;6.018;2023-06-26T13:07:00;1.45;;;0.43;;
47599;SDS011;33323;52.124;6.018;2023-06-26T13:09:32;0.47;;;0.25;;
47599;SDS011;33323;52.124;6.018;2023-06-26T13:12:01;1.52;;;0.43;;
47599;SDS011;33323;52.124;6.018;2023-06-26T13:14:31;3.20;;;0.30;;
47599;SDS011;33323;52.124;6.018;2023-06-26T13:17:02;4.07;;;0.40;;
47599;SDS011;33323;52.124;6.018;2023-06-26T13:19:35;1.63;;;0.50;;
47599;SDS011;33323;52.124;6.018;2023-06-26T13:22:02;1.13;;;0.40;;
47599;SDS011;33323;52.124;6.018;2023-06-26T13:24:30;0.32;;;0.30;;
47599;SDS011;33323;52.124;6.018;2023-06-26T13:26:58;4.32;;;0.60;;
47599;SDS011;33323;52.124;6.018;2023-06-26T13:29:25;4.20;;;0.65;;
47599;SDS011;33323;52.124;6.018;2023-06-26T13:31:53;1.98;;;0.90;;
47599;SDS011;33323;52.124;6.018;2023-06-26T13:34:23;4.03;;;0.50;;
47599;SDS011;33323;52.124;6.018;2023-06-26T13:36:55;0.98;;;0.40;;
47599;SDS011;33323;52.124;6.018;2023-06-26T13:39:23;1.00;;;0.50;;
47599;SDS011;33323;52.124;6.018;2023-06-26T13:41:50;0.68;;;0.30;;
47599;SDS011;33323;52.124;6.018;2023-06-26T13:44:17;1.98;;;0.28;;
47599;SDS011;33323;52.124;6.018;2023-06-26T13:47:01;9.43;;;0.60;;
47599;SDS011;33323;52.124;6.018;2023-06-26T13:49:29;3.13;;;0.45;;
47599;SDS011;33323;52.124;6.018;2023-06-26T13:51:57;1.35;;;0.35;;
47599;SDS011;33323;52.124;6.018;2023-06-26T13:54:24;1.55;;;0.40;;
47599;SDS011;33323;52.124;6.018;2023-06-26T13:56:51;2.08;;;0.35;;
47599;SDS011;33323;52.124;6.018;2023-06-26T13:59:24;2.08;;;0.47;;
47599;SDS011;33323;52.124;6.018;2023-06-26T14:01:54;3.30;;;0.75;;
47599;SDS011;33323;52.124;6.018;2023-06-26T14:04:21;1.83;;;0.95;;
47599;SDS011;33323;52.124;6.018;2023-06-26T14:06:49;2.83;;;0.60;;
47599;SDS011;33323;52.124;6.018;2023-06-26T14:09:16;2.72;;;0.40;;
47599;SDS011;33323;52.124;6.018;2023-06-26T14:11:44;2.63;;;0.38;;
47599;SDS011;33323;52.124;6.018;2023-06-26T14:14:11;3.33;;;0.73;;
47599;SDS011;33323;52.124;6.018;2023-06-26T14:16:39;3.40;;;0.55;;
47599;SDS011;33323;52.124;6.018;2023-06-26T14:19:09;3.80;;;0.50;;
47599;SDS011;33323;52.124;6.018;2023-06-26T14:21:41;2.08;;;0.65;;
47599;SDS011;33323;52.124;6.018;2023-06-26T14:24:09;2.38;;;0.32;;
47599;SDS011;33323;52.124;6.018;2023-06-26T14:26:36;3.22;;;0.50;;
47599;SDS011;33323;52.124;6.018;2023-06-26T14:29:05;1.70;;;0.30;;
47599;SDS011;33323;52.124;6.018;2023-06-26T14:31:33;1.23;;;0.30;;
47599;SDS011;33323;52.124;6.018;2023-06-26T14:34:00;1.60;;;0.90;;
47599;SDS011;33323;52.124;6.018;2023-06-26T14:36:29;1.38;;;0.47;;
47599;SDS011;33323;52.124;6.018;2023-06-26T14:39:01;4.43;;;1.17;;
47599;SDS011;33323;52.124;6.018;2023-06-26T14:41:30;4.40;;;0.50;;
47599;SDS011;33323;52.124;6.018;2023-06-26T14:43:58;2.33;;;0.45;;
47599;SDS011;33323;52.124;6.018;2023-06-26T14:46:26;1.15;;;0.20;;
47599;SDS011;33323;52.124;6.018;2023-06-26T14:48:54;1.55;;;0.40;;
47599;SDS011;33323;52.124;6.018;2023-06-26T14:51:22;1.77;;;0.45;;
47599;SDS011;33323;52.124;6.018;2023-06-26T14:53:49;1.10;;;0.40;;
47599;SDS011;33323;52.124;6.018;2023-06-26T14:56:17;0.98;;;0.63;;
47599;SDS011;33323;52.124;6.018;2023-06-26T14:58:44;3.22;;;0.32;;
47599;SDS011;33323;52.124;6.018;2023-06-26T15:01:13;2.65;;;0.88;;
47599;SDS011;33323;52.124;6.018;2023-06-26T15:03:46;2.55;;;1.33;;
47599;SDS011;33323;52.124;6.018;2023-06-26T15:06:14;3.50;;;0.68;;
47599;SDS011;33323;52.124;6.018;2023-06-26T15:08:41;5.75;;;0.70;;
47599;SDS011;33323;52.124;6.018;2023-06-26T15:11:09;3.50;;;0.82;;
47599;SDS011;33323;52.124;6.018;2023-06-26T15:13:37;1.80;;;0.57;;
47599;SDS011;33323;52.124;6.018;2023-06-26T15:16:04;4.95;;;0.70;;